Time;durP1;ratioP1;P1;durP2;ratioP2;P2;SDS_P1;SDS_P2;PMS_P1;PMS_P2;Temp;Humidity;BMP_temperature;BMP_pressure;BME280_temperature;BME280_humidity;BME280_pressure;Samples;Min_cycle;Max_cycle;Signal;HPM_P1;HPM_P2
2021/08/08 00:03:40;;;;;;;16.57;8.88;;;;;;;17.62;86.66;98247.95;4166242;83;21053;-81
2021/08/08 00:09:43;;;;;;;11.75;6.85;;;;;;;17.60;86.67;98243.48;4172957;83;20994;-82
2021/08/08 00:15:44;;;;;;;10.82;6.75;;;;;;;17.48;86.78;98246.22;4170884;83;21005;-81
2021/08/08 00:21:45;;;;;;;8.78;6.03;;;;;;;17.43;87.11;98241.95;4168964;83;21544;-81
2021/08/08 00:27:47;;;;;;;17.77;6.53;;;;;;;17.41;87.29;98244.39;4168761;83;21419;-81
2021/08/08 00:33:54;;;;;;;7.17;4.30;;;;;;;17.38;87.51;98243.89;4154762;83;21040;-80
2021/08/08 00:39:56;;;;;;;;;;;;;;;17.76;86.11;98242.63;4170555;83;21021;-81
2021/08/08 00:45:58;;;;;;;6.00;4.78;;;;;;;18.06;85.70;98237.34;4173374;83;20187;-82
2021/08/08 00:52:00;;;;;;;3.85;2.70;;;;;;;18.26;83.89;98242.05;4169186;83;21623;-81
2021/08/08 00:58:03;;;;;;;3.72;2.70;;;;;;;18.64;82.91;98238.66;4173158;83;21087;-81
2021/08/08 01:04:08;;;;;;;3.60;2.72;;;;;;;18.89;81.93;98224.59;4167664;83;21601;-81
2021/08/08 01:10:11;;;;;;;4.58;2.37;;;;;;;19.17;79.20;98219.44;4168627;83;21054;-80
2021/08/08 01:16:16;;;;;;;2.92;2.62;;;;;;;19.59;77.44;98215.15;4166323;83;21374;-82
2021/08/08 01:22:19;;;;;;;4.05;2.37;;;;;;;19.95;76.73;98208.41;4158097;83;21699;-81
2021/08/08 01:28:21;;;;;;;2.85;2.17;;;;;;;20.15;75.40;98208.83;4166817;83;21071;-82
2021/08/08 01:34:23;;;;;;;4.30;2.52;;;;;;;20.24;71.99;98201.91;4161234;83;21089;-81
2021/08/08 01:40:34;;;;;;;3.35;2.58;;;;;;;20.42;72.14;98207.55;4151519;82;21129;-82
2021/08/08 01:46:37;;;;;;;3.10;2.22;;;;;;;20.63;68.11;98208.05;4169077;83;21498;-83
2021/08/08 01:52:41;;;;;;;2.42;1.92;;;;;;;21.01;66.32;98200.70;4157536;83;21065;-82
2021/08/08 01:58:44;;;;;;;5.15;2.15;;;;;;;21.25;64.38;98188.48;4145671;83;21059;-82
2021/08/08 02:04:47;;;;;;;4.37;3.00;;;;;;;21.37;64.14;98192.34;4168033;83;21119;-82
2021/08/08 02:10:50;;;;;;;2.77;2.30;;;;;;;21.35;64.24;98201.16;4155964;83;21032;-82
2021/08/08 02:16:55;;;;;;;2.62;2.20;;;;;;;21.38;63.78;98199.45;4144896;83;21072;-82
2021/08/08 02:22:56;;;;;;;6.67;2.60;;;;;;;21.42;63.19;98182.73;4163404;83;21023;-82
2021/08/08 02:28:58;;;;;;;2.90;2.25;;;;;;;21.28;63.94;98175.02;4155339;83;21065;-81
2021/08/08 02:35:00;;;;;;;5.15;2.50;;;;;;;21.17;64.36;98175.36;4147823;83;21038;-82
2021/08/08 02:41:03;;;;;;;3.27;2.47;;;;;;;21.07;64.76;98180.16;4169241;83;21748;-83
2021/08/08 02:47:04;;;;;;;9.78;1.90;;;;;;;21.02;65.16;98200.24;4154431;83;21047;-82
2021/08/08 02:53:06;;;;;;;4.55;2.37;;;;;;;21.00;65.50;98215.22;4136645;83;21501;-81
2021/08/08 02:59:08;;;;;;;3.58;2.37;;;;;;;20.74;66.75;98237.58;4153183;83;21026;-81
2021/08/08 03:05:12;;;;;;;3.58;2.20;;;;;;;20.42;67.24;98243.68;4155993;83;21667;-82
2021/08/08 03:11:13;;;;;;;8.55;4.90;;;;;;;20.18;68.28;98244.82;4149129;83;20989;-83
2021/08/08 03:17:15;;;;;;;8.05;3.12;;;;;;;19.90;68.89;98257.60;4153735;83;21078;-82
2021/08/08 03:23:18;;;;;;;7.30;3.47;;;;;;;19.75;70.16;98272.63;4162122;83;21514;-84
2021/08/08 03:29:20;;;;;;;5.33;2.75;;;;;;;19.51;70.80;98276.31;4168164;83;21559;-82
2021/08/08 03:35:22;;;;;;;4.58;3.83;;;;;;;19.37;71.70;98294.86;4158713;83;20973;-83
2021/08/08 03:41:24;;;;;;;5.20;3.25;;;;;;;19.27;72.48;98304.29;4165783;83;21045;-81
2021/08/08 03:47:26;;;;;;;5.92;3.55;;;;;;;19.11;73.66;98309.38;4166056;83;32906;-84
2021/08/08 03:53:27;;;;;;;5.33;3.08;;;;;;;19.05;74.58;98329.81;4180038;83;21073;-83
2021/08/08 03:59:29;;;;;;;6.08;3.02;;;;;;;18.93;76.29;98358.34;4165078;83;21049;-82
2021/08/08 04:05:31;;;;;;;4.75;3.20;;;;;;;18.87;75.37;98379.55;4175462;83;21040;-84
2021/08/08 04:11:32;;;;;;;6.05;3.02;;;;;;;18.86;75.98;98385.70;4179047;83;21050;-82
2021/08/08 04:17:34;;;;;;;6.33;2.90;;;;;;;18.93;76.52;98399.34;4114947;84;21097;-81
2021/08/08 04:23:37;;;;;;;5.95;2.33;;;;;;;19.02;77.04;98412.53;4191309;82;21044;-81
2021/08/08 04:29:38;;;;;;;3.50;0.93;;;;;;;19.10;77.74;98445.77;4167033;82;21067;-82
2021/08/08 04:35:40;;;;;;;2.52;0.57;;;;;;;19.20;77.50;98455.76;4162768;83;21046;-82
2021/08/08 04:41:42;;;;;;;2.27;0.70;;;;;;;19.22;77.27;98467.16;4176937;83;21694;-81
2021/08/08 04:47:43;;;;;;;1.87;0.70;;;;;;;19.18;77.50;98473.45;4174125;83;21078;-81
2021/08/08 04:53:46;;;;;;;0.93;0.40;;;;;;;19.12;77.74;98488.47;4199610;83;21046;-81
2021/08/08 04:59:48;;;;;;;1.40;0.50;;;;;;;19.09;78.17;98506.00;4122487;84;21088;-82
2021/08/08 05:05:49;;;;;;;2.65;0.80;;;;;;;19.05;78.57;98522.59;4122135;84;21191;-81
2021/08/08 05:11:51;;;;;;;3.55;0.68;;;;;;;19.04;78.79;98543.24;4199461;83;20980;-82
2021/08/08 05:17:53;;;;;;;1.70;0.55;;;;;;;18.97;78.97;98550.38;4170633;83;21018;-81
2021/08/08 05:23:54;;;;;;;3.30;0.70;;;;;;;18.95;79.05;98576.41;4126215;85;21641;-81
2021/08/08 05:29:55;;;;;;;4.42;1.27;;;;;;;18.88;79.27;98589.08;4152308;84;21075;-82
2021/08/08 05:35:57;;;;;;;2.40;0.72;;;;;;;18.86;79.20;98581.20;4149210;84;21626;-81
2021/08/08 05:41:58;;;;;;;1.17;0.65;;;;;;;18.83;79.32;98593.17;4146843;84;21092;-81
2021/08/08 05:48:01;;;;;;;1.62;0.53;;;;;;;18.76;79.52;98598.14;4130287;84;21079;-82
2021/08/08 05:54:04;;;;;;;2.20;0.60;;;;;;;18.75;79.79;98609.83;4133041;84;21170;-82
2021/08/08 06:00:08;;;;;;;1.87;0.50;;;;;;;18.76;79.92;98632.20;4129538;85;21046;-81
2021/08/08 06:06:11;;;;;;;1.27;0.78;;;;;;;18.71;80.35;98647.98;4091804;84;21118;-83
2021/08/08 06:12:12;;;;;;;1.45;1.22;;;;;;;18.67;80.54;98638.37;4168314;83;21106;-81
2021/08/08 06:18:16;;;;;;;3.58;1.10;;;;;;;18.57;80.66;98643.58;4177815;83;21018;-81
2021/08/08 06:24:18;;;;;;;2.70;1.00;;;;;;;18.52;81.44;98663.53;4207199;83;21017;-83
2021/08/08 06:30:20;;;;;;;1.30;0.60;;;;;;;18.58;82.11;98683.17;4169251;83;21123;-80
2021/08/08 06:36:22;;;;;;;4.92;0.65;;;;;;;18.63;82.34;98692.36;4179786;83;21102;-81
2021/08/08 06:42:25;;;;;;;2.17;1.20;;;;;;;18.63;82.80;98704.23;4137753;83;21042;-83
2021/08/08 06:48:26;;;;;;;0.80;0.53;;;;;;;18.63;83.01;98709.77;4182220;83;21004;-81
2021/08/08 06:54:28;;;;;;;2.95;0.75;;;;;;;18.65;82.93;98718.41;4178960;83;21044;-81
2021/08/08 07:00:29;;;;;;;1.32;0.70;;;;;;;18.69;83.29;98728.83;4179402;83;21621;-82
2021/08/08 07:06:30;;;;;;;2.80;0.80;;;;;;;18.67;83.17;98736.79;4136485;84;21053;-81
2021/08/08 07:12:33;;;;;;;1.02;0.53;;;;;;;18.63;83.21;98751.95;4135968;84;21078;-82
2021/08/08 07:18:35;;;;;;;1.85;0.60;;;;;;;18.58;82.84;98750.48;4082284;85;21599;-81
2021/08/08 07:24:37;;;;;;;1.25;0.65;;;;;;;18.50;82.89;98757.41;4092176;85;22360;-81
2021/08/08 07:30:39;;;;;;;3.00;0.55;;;;;;;18.43;82.89;98754.05;4081574;85;21323;-81
2021/08/08 07:36:40;;;;;;;0.98;0.50;;;;;;;18.41;83.16;98760.02;4087376;85;21623;-80
2021/08/08 07:42:49;;;;;;;0.80;0.50;;;;;;;18.47;83.19;98759.67;4087491;85;21622;-81
2021/08/08 07:48:51;;;;;;;1.05;0.70;;;;;;;18.56;83.18;98763.20;4093539;85;21058;-80
2021/08/08 07:54:55;;;;;;;0.78;0.40;;;;;;;18.79;83.01;98761.66;4089572;85;21088;-82
2021/08/08 08:00:57;;;;;;;0.95;0.50;;;;;;;19.13;82.48;98762.53;4102551;85;21027;-81
2021/08/08 08:06:59;;;;;;;1.02;0.50;;;;;;;19.35;82.06;98771.88;4091052;85;21078;-84
2021/08/08 08:13:02;;;;;;;1.15;0.50;;;;;;;19.43;82.04;98765.70;4097624;85;21109;-81
2021/08/08 08:19:03;;;;;;;0.90;0.62;;;;;;;19.53;81.86;98735.45;4097325;85;21094;-81
2021/08/08 08:25:06;;;;;;;1.32;0.72;;;;;;;19.87;81.74;98712.01;4100126;85;21158;-84
2021/08/08 08:31:09;;;;;;;0.93;0.60;;;;;;;20.36;81.43;98730.55;4088460;85;21093;-81
2021/08/08 08:37:12;;;;;;;1.62;0.40;;;;;;;20.74;80.31;98731.27;4010299;86;21171;-81
2021/08/08 08:43:15;;;;;;;0.93;0.60;;;;;;;21.12;79.33;98724.22;4182184;83;21495;-82
2021/08/08 08:49:22;;;;;;;1.17;0.70;;;;;;;21.35;78.39;98730.73;4198356;83;21157;-81
2021/08/08 08:55:24;;;;;;;0.93;0.50;;;;;;;21.54;77.85;98761.05;4123444;84;21570;-82
2021/08/08 09:01:26;;;;;;;1.05;0.60;;;;;;;21.68;77.34;98771.67;4131978;84;21065;-83
2021/08/08 09:07:28;;;;;;;1.15;0.68;;;;;;;21.74;76.27;98779.60;4121060;85;21137;-82
2021/08/08 09:13:30;;;;;;;1.62;0.68;;;;;;;21.76;75.98;98775.61;4129180;85;21046;-82
2021/08/08 09:19:34;;;;;;;1.65;0.85;;;;;;;21.93;76.27;98773.55;4145309;84;21541;-83
2021/08/08 09:25:55;;;;;;;0.80;0.50;;;;;;;22.22;75.46;98772.64;4139311;84;21109;-82
2021/08/08 09:31:59;;;;;;;2.30;0.50;;;;;;;22.96;75.29;98760.63;4084148;84;21083;-83
2021/08/08 09:38:07;;;;;;;2.02;0.55;;;;;;;23.75;71.84;98772.13;4123579;84;21098;-83
2021/08/08 09:44:09;;;;;;;1.67;0.65;;;;;;;24.68;72.32;98770.77;4109304;84;21112;-82
2021/08/08 09:50:21;;;;;;;1.12;0.50;;;;;;;24.93;70.29;98785.71;4120569;85;21066;-85
2021/08/08 09:56:24;;;;;;;0.90;0.62;;;;;;;24.76;69.50;98773.37;4186597;83;21073;-82
2021/08/08 10:02:25;;;;;;;2.05;0.60;;;;;;;25.15;68.75;98764.53;4180868;83;21484;-83
2021/08/08 10:08:27;;;;;;;2.47;0.70;;;;;;;26.24;67.52;98771.34;4116515;85;21674;-82
2021/08/08 10:14:30;;;;;;;2.50;0.60;;;;;;;27.15;65.40;98767.47;4191504;83;21091;-84
2021/08/08 10:20:32;;;;;;;0.78;0.68;;;;;;;27.72;65.26;98777.46;4166678;83;21552;-83
2021/08/08 10:26:34;;;;;;;0.60;0.55;;;;;;;27.97;62.41;98790.78;4181421;83;21058;-85
2021/08/08 10:32:35;;;;;;;1.07;0.75;;;;;;;27.92;61.95;98797.16;4126953;84;22251;-82
2021/08/08 10:38:38;;;;;;;0.88;0.40;;;;;;;27.78;60.89;98797.22;4115038;85;21119;-85
2021/08/08 10:44:51;;;;;;;0.50;0.50;;;;;;;27.65;60.62;98800.41;4172771;83;21072;-85
2021/08/08 10:50:53;;;;;;;1.07;0.50;;;;;;;27.43;59.47;98802.34;4130560;85;21018;-84
2021/08/08 10:56:54;;;;;;;0.78;0.60;;;;;;;27.38;58.52;98805.84;4147097;84;21106;-83
2021/08/08 11:02:55;;;;;;;0.53;0.50;;;;;;;27.51;57.66;98803.45;4126084;85;21044;-84
2021/08/08 11:08:59;;;;;;;0.55;0.50;;;;;;;27.66;55.95;98806.16;4128354;84;21706;-83
2021/08/08 11:15:01;;;;;;;2.47;0.60;;;;;;;27.74;56.14;98804.46;4111158;84;21043;-84
2021/08/08 11:21:12;;;;;;;0.90;0.47;;;;;;;28.37;56.33;98802.53;4191836;82;21031;-82
2021/08/08 11:27:13;;;;;;;2.55;0.60;;;;;;;28.77;56.00;98823.48;4181500;83;21086;-84
2021/08/08 11:33:17;;;;;;;0.80;0.68;;;;;;;28.86;55.87;98829.67;4207763;82;21104;-84
2021/08/08 11:39:18;;;;;;;0.98;0.60;;;;;;;29.36;54.68;98825.78;4177466;83;21177;-84
2021/08/08 11:45:21;;;;;;;0.75;0.53;;;;;;;29.40;54.11;98833.97;4214678;83;21578;-82
2021/08/08 11:51:23;;;;;;;0.70;0.50;;;;;;;29.26;52.71;98832.11;4154991;82;21102;-83
2021/08/08 11:57:28;;;;;;;0.70;0.50;;;;;;;28.98;53.48;98827.71;4197330;83;21085;-84
2021/08/08 12:03:31;;;;;;;1.10;0.67;;;;;;;28.63;52.79;98836.43;4172433;82;21086;-83
2021/08/08 12:09:34;;;;;;;1.87;0.60;;;;;;;28.24;52.18;98842.34;4210698;82;21040;-84
2021/08/08 12:15:37;;;;;;;1.62;0.50;;;;;;;27.83;52.58;98840.86;4174772;83;21001;-83
2021/08/08 12:21:40;;;;;;;1.75;0.40;;;;;;;27.37;52.22;98842.26;4194380;82;21053;-82
2021/08/08 12:27:45;;;;;;;0.85;0.50;;;;;;;26.83;52.17;98838.77;4179321;83;21633;-83
2021/08/08 12:33:46;;;;;;;1.40;0.40;;;;;;;26.47;52.26;98853.88;4208247;83;21051;-83
2021/08/08 12:39:48;;;;;;;1.02;0.60;;;;;;;26.22;53.04;98851.66;4189846;83;21145;-83
2021/08/08 12:45:51;;;;;;;1.95;0.60;;;;;;;26.06;53.22;98855.06;4150983;83;20997;-82
2021/08/08 12:51:52;;;;;;;3.70;0.57;;;;;;;25.79;53.30;98865.09;4166454;83;21569;-83
2021/08/08 12:57:53;;;;;;;0.82;0.60;;;;;;;25.47;53.64;98866.59;4159621;83;21027;-84
2021/08/08 13:03:58;;;;;;;1.25;0.65;;;;;;;25.34;54.21;98870.28;4196742;83;21134;-85
2021/08/08 13:09:59;;;;;;;1.00;0.62;;;;;;;25.34;55.03;98869.64;4171794;83;21418;-82
2021/08/08 13:16:01;;;;;;;0.93;0.70;;;;;;;25.19;55.42;98883.41;4175855;83;21489;-84
2021/08/08 13:22:07;;;;;;;0.80;0.60;;;;;;;25.19;55.80;98879.98;4176256;83;21030;-83
2021/08/08 13:28:08;;;;;;;1.52;0.60;;;;;;;25.34;55.63;98873.84;4178702;83;21042;-82
2021/08/08 13:34:10;;;;;;;0.80;0.57;;;;;;;25.42;55.50;98878.45;4179402;83;21011;-83
2021/08/08 13:40:12;;;;;;;0.50;0.50;;;;;;;25.25;55.32;98882.89;4184855;83;21091;-83
2021/08/08 13:46:13;;;;;;;0.88;0.57;;;;;;;25.08;55.65;98885.34;4135022;84;21402;-84
2021/08/08 13:52:14;;;;;;;1.27;0.45;;;;;;;25.09;55.37;98891.08;4114076;84;21054;-83
2021/08/08 13:58:18;;;;;;;0.70;0.60;;;;;;;24.83;55.55;98882.97;4127882;85;21966;-84
2021/08/08 14:04:19;;;;;;;1.17;0.60;;;;;;;24.34;56.62;98854.50;4162854;83;21045;-82
2021/08/08 14:10:20;;;;;;;1.12;0.62;;;;;;;24.34;56.62;98854.50;4171384;83;21525;-83
2021/08/08 14:16:21;;;;;;;2.02;0.75;;;;;;;24.38;56.65;98869.86;4186884;83;21055;-84
2021/08/08 14:22:23;;;;;;;2.12;0.57;;;;;;;24.04;56.89;98867.45;4109806;84;21062;-83
2021/08/08 14:28:25;;;;;;;1.80;0.40;;;;;;;24.04;56.89;98867.45;4087097;85;21381;-82
2021/08/08 14:34:26;;;;;;;2.50;0.40;;;;;;;24.02;57.32;98878.36;4100496;85;21043;-82
2021/08/08 14:40:28;;;;;;;0.70;0.60;;;;;;;23.99;57.45;98884.09;4094277;85;21440;-85
2021/08/08 14:46:29;;;;;;;0.53;0.40;;;;;;;23.89;57.85;98878.31;4094683;85;21046;-82
2021/08/08 14:52:31;;;;;;;0.88;0.60;;;;;;;23.76;58.60;98875.68;4012969;86;21080;-83
2021/08/08 14:58:32;;;;;;;1.95;0.70;;;;;;;23.71;59.23;98876.30;3999626;86;21121;-83
2021/08/08 15:04:34;;;;;;;1.75;1.00;;;;;;;23.62;59.28;98869.92;4183934;83;21082;-82
2021/08/08 15:10:35;;;;;;;1.62;0.80;;;;;;;23.55;59.81;98869.64;4138066;85;21119;-82
2021/08/08 15:16:37;;;;;;;1.10;0.85;;;;;;;23.54;60.25;98880.64;4119402;84;21654;-82
2021/08/08 15:22:38;;;;;;;1.07;0.80;;;;;;;23.51;59.78;98891.98;4131983;84;21011;-83
2021/08/08 15:28:42;;;;;;;1.32;1.10;;;;;;;23.43;59.85;98893.52;4072405;84;21111;-82
2021/08/08 15:34:43;;;;;;;2.05;0.82;;;;;;;23.39;60.05;98899.25;4097242;84;21431;-82
2021/08/08 15:40:45;;;;;;;2.52;1.22;;;;;;;23.34;60.14;98895.67;4084939;84;21017;-82
2021/08/08 15:46:46;;;;;;;1.47;1.00;;;;;;;23.31;60.10;98897.99;4125664;84;21486;-81
2021/08/08 15:52:47;;;;;;;1.87;1.07;;;;;;;23.14;60.67;98910.03;4085058;84;21015;-81
2021/08/08 15:58:48;;;;;;;2.60;0.93;;;;;;;23.02;61.00;98915.09;4097274;84;21528;-81
2021/08/08 16:04:52;;;;;;;3.02;1.30;;;;;;;22.94;61.89;98920.04;4088625;84;21032;-82
2021/08/08 16:10:54;;;;;;;1.60;0.90;;;;;;;22.86;62.47;98916.77;4087282;84;21059;-82
2021/08/08 16:16:55;;;;;;;3.75;0.88;;;;;;;22.71;62.71;98933.87;4101677;84;22237;-83
2021/08/08 16:22:56;;;;;;;2.50;0.95;;;;;;;22.63;62.79;98930.44;4086709;84;21104;-82
2021/08/08 16:28:57;;;;;;;2.35;0.95;;;;;;;22.55;63.02;98938.92;4113056;84;21017;-82
2021/08/08 16:34:59;;;;;;;0.70;0.70;;;;;;;22.47;63.23;98939.78;4186035;83;21117;-84
2021/08/08 16:41:00;;;;;;;1.57;0.85;;;;;;;22.40;63.00;98941.42;4187454;83;21046;-82
2021/08/08 16:47:01;;;;;;;1.12;0.72;;;;;;;22.35;63.24;98936.42;4178732;83;21503;-82
2021/08/08 16:53:03;;;;;;;1.25;0.78;;;;;;;22.35;63.72;98917.55;4183582;83;20982;-82
2021/08/08 16:59:04;;;;;;;0.85;0.70;;;;;;;22.31;63.85;98935.01;4064985;82;10000432;-83
2021/08/08 17:05:07;;;;;;;2.80;1.07;;;;;;;22.18;63.96;98931.50;4183868;82;21414;-83
2021/08/08 17:11:08;;;;;;;2.02;1.10;;;;;;;22.26;64.60;98939.16;4179514;82;21681;-83
2021/08/08 17:17:10;;;;;;;3.65;1.40;;;;;;;22.28;65.11;98944.28;4178658;82;21996;-83
2021/08/08 17:23:12;;;;;;;1.82;1.00;;;;;;;22.32;65.86;98949.09;4173268;83;21006;-82
2021/08/08 17:29:13;;;;;;;2.40;1.70;;;;;;;22.29;65.73;98941.04;4173069;83;21020;-85
2021/08/08 17:35:14;;;;;;;2.08;1.67;;;;;;;22.19;66.12;98924.07;4183422;83;21022;-82
2021/08/08 17:41:16;;;;;;;2.90;1.40;;;;;;;22.08;66.91;98936.86;4192916;83;20986;-83
2021/08/08 17:47:17;;;;;;;3.87;1.75;;;;;;;22.07;67.04;98936.68;4156789;82;21074;-82
2021/08/08 17:53:19;;;;;;;2.10;1.75;;;;;;;22.03;67.55;98942.41;4171389;83;20996;-82
2021/08/08 17:59:20;;;;;;;3.62;1.72;;;;;;;21.97;67.93;98951.19;4175460;83;21890;-82
2021/08/08 18:05:22;;;;;;;3.08;1.67;;;;;;;21.92;68.76;98948.97;4156547;83;20990;-82
2021/08/08 18:11:23;;;;;;;5.00;1.62;;;;;;;21.81;68.80;98938.81;4162668;83;21061;-82
2021/08/08 18:17:24;;;;;;;4.22;1.90;;;;;;;21.64;69.70;98924.22;4140911;83;21501;-82
2021/08/08 18:23:26;;;;;;;2.80;1.80;;;;;;;21.57;69.85;98952.94;4183749;83;21078;-82
2021/08/08 18:29:27;;;;;;;5.92;1.98;;;;;;;21.43;70.12;98952.81;4172985;83;21839;-82
2021/08/08 18:35:28;;;;;;;2.90;1.90;;;;;;;21.35;70.55;98967.40;4073293;82;9999981;-83
2021/08/08 18:41:30;;;;;;;3.42;1.95;;;;;;;21.29;70.85;98961.62;4165360;83;21379;-82
2021/08/08 18:47:31;;;;;;;4.00;2.00;;;;;;;21.18;71.76;98959.80;4189347;83;21023;-82
2021/08/08 18:53:33;;;;;;;6.03;2.47;;;;;;;21.14;72.03;98956.97;4194695;83;21861;-82
2021/08/08 18:59:34;;;;;;;3.52;2.17;;;;;;;21.04;72.39;98972.77;4191444;83;21474;-82
2021/08/08 19:05:36;;;;;;;3.08;2.00;;;;;;;21.00;72.84;98986.63;4182283;83;21717;-83
2021/08/08 19:11:37;;;;;;;6.60;2.98;;;;;;;20.89;73.01;98998.04;4171660;83;21105;-83
2021/08/08 19:17:39;;;;;;;6.53;3.17;;;;;;;20.86;73.39;99001.70;4173040;82;21043;-85
2021/08/08 19:23:40;;;;;;;4.83;2.95;;;;;;;20.82;73.43;99003.83;4186394;82;20970;-82
2021/08/08 19:29:41;;;;;;;4.33;2.62;;;;;;;20.84;74.05;99001.39;4174795;83;21012;-82
2021/08/08 19:35:43;;;;;;;5.55;3.35;;;;;;;20.83;74.09;98999.05;4160640;83;21051;-82
2021/08/08 19:41:44;;;;;;;6.42;3.42;;;;;;;20.76;74.37;98998.65;4180049;82;21106;-82
2021/08/08 19:47:45;;;;;;;4.80;3.17;;;;;;;20.67;74.87;99004.70;4172964;83;21079;-82
2021/08/08 19:53:46;;;;;;;5.80;3.30;;;;;;;20.57;75.33;99005.17;4174582;83;21004;-82
2021/08/08 19:59:48;;;;;;;6.78;3.87;;;;;;;20.58;75.68;99013.67;4170123;83;21015;-81
2021/08/08 20:05:49;;;;;;;9.68;4.00;;;;;;;20.54;76.15;99007.44;4168982;83;21039;-82
2021/08/08 20:11:52;;;;;;;6.45;3.80;;;;;;;20.53;76.24;99012.05;4171809;83;21441;-82
2021/08/08 20:17:53;;;;;;;7.28;4.10;;;;;;;20.53;76.38;99003.72;4177669;83;20983;-84
2021/08/08 20:23:54;;;;;;;6.10;4.20;;;;;;;20.37;76.69;99024.02;4161449;83;21036;-82
2021/08/08 20:29:56;;;;;;;6.33;4.30;;;;;;;20.04;77.03;99021.91;4177733;83;20978;-82
2021/08/08 20:35:57;;;;;;;5.70;4.15;;;;;;;19.90;78.01;99004.23;4192038;83;21067;-82
2021/08/08 20:41:58;;;;;;;5.58;4.10;;;;;;;19.76;78.96;98981.58;4184537;82;21032;-82
2021/08/08 20:48:00;;;;;;;4.03;3.30;;;;;;;19.76;79.62;98994.84;4165643;83;21043;-85
2021/08/08 20:54:04;;;;;;;5.40;3.95;;;;;;;19.62;80.08;98967.44;4169846;83;21069;-81
2021/08/08 21:00:09;;;;;;;7.40;4.45;;;;;;;19.45;81.23;98974.84;4184628;83;21102;-82
2021/08/08 21:06:10;;;;;;;7.33;4.80;;;;;;;19.36;81.30;98977.42;4184352;83;21065;-82
2021/08/08 21:12:12;;;;;;;7.78;3.80;;;;;;;19.37;82.28;98992.26;4179857;83;21047;-82
2021/08/08 21:18:13;;;;;;;10.68;4.65;;;;;;;19.45;82.82;98998.44;4189672;83;21532;-82
2021/08/08 21:24:14;;;;;;;8.80;4.17;;;;;;;19.48;83.27;99005.27;4184895;83;21034;-81
2021/08/08 21:30:15;;;;;;;6.97;4.08;;;;;;;19.48;83.65;99027.48;4179249;83;21075;-82
2021/08/08 21:36:18;;;;;;;6.40;3.67;;;;;;;19.39;84.17;99040.41;4118028;84;21034;-82
2021/08/08 21:42:19;;;;;;;6.58;3.27;;;;;;;19.22;84.02;99003.50;4033793;86;21103;-82
2021/08/08 21:48:21;;;;;;;4.92;3.27;;;;;;;19.05;84.73;99033.03;4096877;85;21618;-84
2021/08/08 21:54:23;;;;;;;9.43;3.30;;;;;;;19.00;85.22;99137.57;4114541;85;21077;-86
2021/08/08 22:00:30;;;;;;;11.43;4.00;;;;;;;18.84;85.63;99141.68;4099747;85;21122;-86
2021/08/08 22:06:32;;;;;;;11.48;3.70;;;;;;;18.59;86.14;99200.36;4111602;85;21062;-88
2021/08/08 22:12:33;;;;;;;5.95;3.47;;;;;;;18.36;86.26;99167.88;4094935;85;21697;-85
2021/08/08 22:25:11;;;;;;;9.47;2.97;;;;;;;18.08;87.58;99177.26;4073439;84;20998;-84
2021/08/08 22:31:13;;;;;;;4.58;2.62;;;;;;;17.97;87.76;99182.18;4172174;83;21050;-84
2021/08/08 22:37:14;;;;;;;5.67;2.70;;;;;;;17.97;88.49;99173.88;4186816;83;21626;-85
2021/08/08 22:43:15;;;;;;;7.90;2.80;;;;;;;18.00;88.64;99227.84;4178281;83;21025;-84
2021/08/08 22:49:17;;;;;;;4.50;2.40;;;;;;;18.04;89.12;99252.09;4176583;83;21454;-84
2021/08/08 22:55:19;;;;;;;5.87;3.30;;;;;;;18.03;89.19;99299.61;4190626;83;21020;-86
2021/08/08 23:01:20;;;;;;;10.32;3.55;;;;;;;18.01;89.27;99351.89;4209222;83;21096;-85
2021/08/08 23:07:22;;;;;;;8.05;2.80;;;;;;;17.91;89.44;99316.20;4182379;83;21074;-86
2021/08/08 23:13:25;;;;;;;6.53;2.77;;;;;;;17.81;89.47;99301.09;4187396;83;21507;-86
2021/08/08 23:19:28;;;;;;;6.45;2.67;;;;;;;17.67;89.98;99268.84;4202411;83;21080;-85
2021/08/08 23:25:29;;;;;;;6.03;2.33;;;;;;;17.64;90.29;99259.99;4188303;83;21514;-85
2021/08/08 23:31:34;;;;;;;4.50;2.77;;;;;;;17.56;90.35;99221.73;4134584;85;21132;-86
2021/08/08 23:37:36;;;;;;;6.12;2.83;;;;;;;17.51;90.28;99214.68;4120825;85;21000;-85
2021/08/08 23:43:37;;;;;;;4.35;2.55;;;;;;;17.55;91.14;99218.20;4126183;84;21062;-84
2021/08/08 23:49:38;;;;;;;4.35;2.87;;;;;;;17.43;90.46;99217.32;4106095;84;21540;-83
2021/08/08 23:55:40;;;;;;;4.58;2.95;;;;;;;17.35;90.98;99207.56;4096119;84;21048;-83
